sensor_id;sensor_type;location;lat;lon;timestamp;temperature;humidity
55313;DHT22;46892;45.668;11.756;2023-03-14T00:00:36;11.00;77.30
55313;DHT22;46892;45.668;11.756;2023-03-14T00:03:02;11.10;76.00
55313;DHT22;46892;45.668;11.756;2023-03-14T00:05:28;11.20;75.70
55313;DHT22;46892;45.668;11.756;2023-03-14T00:07:54;11.30;74.10
55313;DHT22;46892;45.668;11.756;2023-03-14T00:10:20;11.30;73.90
55313;DHT22;46892;45.668;11.756;2023-03-14T00:12:46;11.20;74.30
55313;DHT22;46892;45.668;11.756;2023-03-14T00:15:11;11.30;74.90
55313;DHT22;46892;45.668;11.756;2023-03-14T00:17:37;11.40;74.20
55313;DHT22;46892;45.668;11.756;2023-03-14T00:20:07;11.40;73.70
55313;DHT22;46892;45.668;11.756;2023-03-14T00:22:40;11.30;73.20
55313;DHT22;46892;45.668;11.756;2023-03-14T00:25:08;11.30;73.70
55313;DHT22;46892;45.668;11.756;2023-03-14T00:27:34;11.50;73.60
55313;DHT22;46892;45.668;11.756;2023-03-14T00:30:00;11.60;72.90
55313;DHT22;46892;45.668;11.756;2023-03-14T00:32:26;11.70;73.00
55313;DHT22;46892;45.668;11.756;2023-03-14T00:34:52;11.60;73.30
55313;DHT22;46892;45.668;11.756;2023-03-14T00:37:18;11.60;73.40
55313;DHT22;46892;45.668;11.756;2023-03-14T00:39:43;11.50;72.90
55313;DHT22;46892;45.668;11.756;2023-03-14T00:42:09;11.40;73.50
55313;DHT22;46892;45.668;11.756;2023-03-14T00:44:35;11.40;74.00
55313;DHT22;46892;45.668;11.756;2023-03-14T00:47:01;11.30;74.30
55313;DHT22;46892;45.668;11.756;2023-03-14T00:49:26;11.20;74.30
55313;DHT22;46892;45.668;11.756;2023-03-14T00:51:52;11.20;74.30
55313;DHT22;46892;45.668;11.756;2023-03-14T00:54:19;11.20;74.00
55313;DHT22;46892;45.668;11.756;2023-03-14T00:56:45;11.10;74.00
55313;DHT22;46892;45.668;11.756;2023-03-14T00:59:10;11.10;73.70
55313;DHT22;46892;45.668;11.756;2023-03-14T01:01:36;11.10;73.60
55313;DHT22;46892;45.668;11.756;2023-03-14T01:04:02;11.20;73.50
55313;DHT22;46892;45.668;11.756;2023-03-14T01:06:28;11.20;73.20
55313;DHT22;46892;45.668;11.756;2023-03-14T01:08:55;11.30;72.60
55313;DHT22;46892;45.668;11.756;2023-03-14T01:11:30;11.20;72.10
55313;DHT22;46892;45.668;11.756;2023-03-14T01:13:56;11.20;72.30
55313;DHT22;46892;45.668;11.756;2023-03-14T01:16:24;11.20;72.20
55313;DHT22;46892;45.668;11.756;2023-03-14T01:18:51;11.10;73.00
55313;DHT22;46892;45.668;11.756;2023-03-14T01:21:19;11.10;73.00
55313;DHT22;46892;45.668;11.756;2023-03-14T01:23:46;11.30;72.60
55313;DHT22;46892;45.668;11.756;2023-03-14T01:26:14;11.20;72.80
55313;DHT22;46892;45.668;11.756;2023-03-14T01:28:40;11.10;73.50
55313;DHT22;46892;45.668;11.756;2023-03-14T01:31:08;11.00;73.30
55313;DHT22;46892;45.668;11.756;2023-03-14T01:33:34;11.20;73.10
55313;DHT22;46892;45.668;11.756;2023-03-14T01:36:00;11.10;73.10
55313;DHT22;46892;45.668;11.756;2023-03-14T01:38:28;11.00;73.90
55313;DHT22;46892;45.668;11.756;2023-03-14T01:40:55;10.80;73.90
55313;DHT22;46892;45.668;11.756;2023-03-14T01:43:20;10.80;73.70
55313;DHT22;46892;45.668;11.756;2023-03-14T01:51:59;10.80;73.80
55313;DHT22;46892;45.668;11.756;2023-03-14T01:54:14;10.80;74.30
55313;DHT22;46892;45.668;11.756;2023-03-14T01:56:44;10.80;74.30
55313;DHT22;46892;45.668;11.756;2023-03-14T01:59:12;10.90;74.70
55313;DHT22;46892;45.668;11.756;2023-03-14T02:01:41;11.00;74.30
55313;DHT22;46892;45.668;11.756;2023-03-14T02:04:08;11.00;74.20
55313;DHT22;46892;45.668;11.756;2023-03-14T02:06:47;11.00;74.60
55313;DHT22;46892;45.668;11.756;2023-03-14T02:09:14;11.00;74.40
55313;DHT22;46892;45.668;11.756;2023-03-14T02:11:40;11.00;74.10
55313;DHT22;46892;45.668;11.756;2023-03-14T02:14:07;10.90;74.00
55313;DHT22;46892;45.668;11.756;2023-03-14T02:16:35;10.90;74.70
55313;DHT22;46892;45.668;11.756;2023-03-14T02:19:01;10.90;74.70
55313;DHT22;46892;45.668;11.756;2023-03-14T02:21:43;10.90;74.70
55313;DHT22;46892;45.668;11.756;2023-03-14T02:27:05;10.80;75.30
55313;DHT22;46892;45.668;11.756;2023-03-14T02:29:32;10.80;75.10
55313;DHT22;46892;45.668;11.756;2023-03-14T02:31:58;10.80;75.10
55313;DHT22;46892;45.668;11.756;2023-03-14T02:34:25;10.90;74.90
55313;DHT22;46892;45.668;11.756;2023-03-14T02:36:51;10.90;75.00
55313;DHT22;46892;45.668;11.756;2023-03-14T02:39:44;10.90;75.10
55313;DHT22;46892;45.668;11.756;2023-03-14T02:42:10;10.90;75.00
55313;DHT22;46892;45.668;11.756;2023-03-14T02:44:35;11.10;74.70
55313;DHT22;46892;45.668;11.756;2023-03-14T02:47:03;11.10;74.50
55313;DHT22;46892;45.668;11.756;2023-03-14T02:49:30;11.00;74.40
55313;DHT22;46892;45.668;11.756;2023-03-14T02:51:56;11.20;74.40
55313;DHT22;46892;45.668;11.756;2023-03-14T02:54:22;11.10;74.70
55313;DHT22;46892;45.668;11.756;2023-03-14T02:56:48;11.00;74.90
55313;DHT22;46892;45.668;11.756;2023-03-14T02:59:13;11.00;74.70
55313;DHT22;46892;45.668;11.756;2023-03-14T03:01:39;10.90;74.50
55313;DHT22;46892;45.668;11.756;2023-03-14T03:04:05;10.90;74.60
55313;DHT22;46892;45.668;11.756;2023-03-14T03:06:30;11.00;74.40
55313;DHT22;46892;45.668;11.756;2023-03-14T03:08:56;10.90;74.80
55313;DHT22;46892;45.668;11.756;2023-03-14T03:11:22;10.80;75.30
55313;DHT22;46892;45.668;11.756;2023-03-14T03:13:47;10.80;75.40
55313;DHT22;46892;45.668;11.756;2023-03-14T03:16:13;10.80;75.10
55313;DHT22;46892;45.668;11.756;2023-03-14T03:18:40;10.80;75.10
55313;DHT22;46892;45.668;11.756;2023-03-14T03:21:06;10.80;75.20
55313;DHT22;46892;45.668;11.756;2023-03-14T03:23:34;10.80;75.30
55313;DHT22;46892;45.668;11.756;2023-03-14T03:26:00;10.80;75.30
55313;DHT22;46892;45.668;11.756;2023-03-14T03:28:27;10.80;75.60
55313;DHT22;46892;45.668;11.756;2023-03-14T03:30:53;10.80;75.50
55313;DHT22;46892;45.668;11.756;2023-03-14T03:33:19;10.80;75.50
55313;DHT22;46892;45.668;11.756;2023-03-14T03:35:47;10.80;75.30
55313;DHT22;46892;45.668;11.756;2023-03-14T03:38:13;10.80;75.10
55313;DHT22;46892;45.668;11.756;2023-03-14T03:40:39;10.90;74.90
55313;DHT22;46892;45.668;11.756;2023-03-14T03:43:04;10.90;74.70
55313;DHT22;46892;45.668;11.756;2023-03-14T03:45:30;10.90;74.10
55313;DHT22;46892;45.668;11.756;2023-03-14T03:47:56;10.90;73.90
55313;DHT22;46892;45.668;11.756;2023-03-14T03:50:22;10.90;74.00
55313;DHT22;46892;45.668;11.756;2023-03-14T03:52:47;10.90;74.10
55313;DHT22;46892;45.668;11.756;2023-03-14T03:55:13;10.90;74.80
55313;DHT22;46892;45.668;11.756;2023-03-14T03:57:39;10.90;74.70
55313;DHT22;46892;45.668;11.756;2023-03-14T04:00:05;10.90;74.60
55313;DHT22;46892;45.668;11.756;2023-03-14T04:02:31;10.90;74.50
55313;DHT22;46892;45.668;11.756;2023-03-14T04:04:57;10.90;74.10
55313;DHT22;46892;45.668;11.756;2023-03-14T04:07:23;11.00;73.90
55313;DHT22;46892;45.668;11.756;2023-03-14T04:09:48;10.90;74.10
55313;DHT22;46892;45.668;11.756;2023-03-14T04:12:14;11.00;73.80
55313;DHT22;46892;45.668;11.756;2023-03-14T04:14:39;10.90;73.80
55313;DHT22;46892;45.668;11.756;2023-03-14T04:17:07;10.90;74.30
55313;DHT22;46892;45.668;11.756;2023-03-14T04:19:32;10.80;74.60
55313;DHT22;46892;45.668;11.756;2023-03-14T04:21:58;10.80;74.90
55313;DHT22;46892;45.668;11.756;2023-03-14T04:24:23;10.80;75.20
55313;DHT22;46892;45.668;11.756;2023-03-14T04:26:49;10.70;75.30
55313;DHT22;46892;45.668;11.756;2023-03-14T04:29:15;10.70;75.40
55313;DHT22;46892;45.668;11.756;2023-03-14T04:31:41;10.70;75.50
55313;DHT22;46892;45.668;11.756;2023-03-14T04:34:06;10.80;75.20
55313;DHT22;46892;45.668;11.756;2023-03-14T04:36:32;10.90;75.00
55313;DHT22;46892;45.668;11.756;2023-03-14T04:38:58;10.90;74.90
55313;DHT22;46892;45.668;11.756;2023-03-14T04:41:23;10.90;75.20
55313;DHT22;46892;45.668;11.756;2023-03-14T04:43:49;10.90;75.20
55313;DHT22;46892;45.668;11.756;2023-03-14T04:46:15;11.00;75.10
55313;DHT22;46892;45.668;11.756;2023-03-14T04:48:40;10.90;75.80
55313;DHT22;46892;45.668;11.756;2023-03-14T04:51:06;11.00;75.50
55313;DHT22;46892;45.668;11.756;2023-03-14T04:53:32;11.00;75.80
55313;DHT22;46892;45.668;11.756;2023-03-14T04:55:59;10.80;76.10
55313;DHT22;46892;45.668;11.756;2023-03-14T04:58:25;10.80;76.40
55313;DHT22;46892;45.668;11.756;2023-03-14T05:00:50;10.70;76.70
55313;DHT22;46892;45.668;11.756;2023-03-14T05:03:17;10.70;76.90
55313;DHT22;46892;45.668;11.756;2023-03-14T05:05:43;10.70;76.90
55313;DHT22;46892;45.668;11.756;2023-03-14T05:08:10;10.70;77.20
55313;DHT22;46892;45.668;11.756;2023-03-14T05:10:36;10.70;77.40
55313;DHT22;46892;45.668;11.756;2023-03-14T05:13:01;10.70;77.50
55313;DHT22;46892;45.668;11.756;2023-03-14T05:15:27;10.80;77.40
55313;DHT22;46892;45.668;11.756;2023-03-14T05:17:53;10.80;77.30
55313;DHT22;46892;45.668;11.756;2023-03-14T05:20:20;10.80;77.30
55313;DHT22;46892;45.668;11.756;2023-03-14T05:22:46;10.80;77.50
55313;DHT22;46892;45.668;11.756;2023-03-14T05:25:11;10.80;77.70
55313;DHT22;46892;45.668;11.756;2023-03-14T05:27:37;10.80;78.00
55313;DHT22;46892;45.668;11.756;2023-03-14T05:30:05;10.80;78.20
55313;DHT22;46892;45.668;11.756;2023-03-14T05:32:31;10.80;78.20
55313;DHT22;46892;45.668;11.756;2023-03-14T05:34:57;10.80;78.20
55313;DHT22;46892;45.668;11.756;2023-03-14T05:37:25;10.90;78.20
55313;DHT22;46892;45.668;11.756;2023-03-14T05:39:51;10.90;78.30
55313;DHT22;46892;45.668;11.756;2023-03-14T05:42:17;11.00;78.10
55313;DHT22;46892;45.668;11.756;2023-03-14T05:44:43;11.00;78.00
55313;DHT22;46892;45.668;11.756;2023-03-14T05:47:08;11.00;78.00
55313;DHT22;46892;45.668;11.756;2023-03-14T05:49:34;10.90;77.80
55313;DHT22;46892;45.668;11.756;2023-03-14T05:52:00;10.90;77.50
55313;DHT22;46892;45.668;11.756;2023-03-14T05:54:26;10.80;77.70
55313;DHT22;46892;45.668;11.756;2023-03-14T05:56:51;10.80;77.80
55313;DHT22;46892;45.668;11.756;2023-03-14T05:59:17;10.80;77.50
55313;DHT22;46892;45.668;11.756;2023-03-14T06:01:43;10.70;77.60
55313;DHT22;46892;45.668;11.756;2023-03-14T06:04:09;10.80;77.60
55313;DHT22;46892;45.668;11.756;2023-03-14T06:06:34;10.70;77.70
55313;DHT22;46892;45.668;11.756;2023-03-14T06:09:00;10.70;77.90
55313;DHT22;46892;45.668;11.756;2023-03-14T06:11:26;10.70;78.10
55313;DHT22;46892;45.668;11.756;2023-03-14T06:13:51;10.70;78.20
55313;DHT22;46892;45.668;11.756;2023-03-14T06:16:17;10.70;78.20
55313;DHT22;46892;45.668;11.756;2023-03-14T06:18:43;10.70;78.20
55313;DHT22;46892;45.668;11.756;2023-03-14T06:21:09;10.70;78.50
55313;DHT22;46892;45.668;11.756;2023-03-14T06:23:34;10.70;78.50
55313;DHT22;46892;45.668;11.756;2023-03-14T06:26:00;10.70;78.60
55313;DHT22;46892;45.668;11.756;2023-03-14T06:28:26;10.80;78.60
55313;DHT22;46892;45.668;11.756;2023-03-14T06:30:52;10.70;78.50
55313;DHT22;46892;45.668;11.756;2023-03-14T06:33:17;10.70;79.00
55313;DHT22;46892;45.668;11.756;2023-03-14T06:35:43;10.80;79.40
55313;DHT22;46892;45.668;11.756;2023-03-14T06:38:09;10.90;79.10
55313;DHT22;46892;45.668;11.756;2023-03-14T06:40:35;10.90;79.80
55313;DHT22;46892;45.668;11.756;2023-03-14T06:43:00;10.90;79.40
55313;DHT22;46892;45.668;11.756;2023-03-14T06:45:26;10.70;80.50
55313;DHT22;46892;45.668;11.756;2023-03-14T06:47:52;10.70;81.10
55313;DHT22;46892;45.668;11.756;2023-03-14T06:50:17;10.60;81.00
55313;DHT22;46892;45.668;11.756;2023-03-14T06:52:43;10.60;81.50
55313;DHT22;46892;45.668;11.756;2023-03-14T06:55:14;10.50;81.50
55313;DHT22;46892;45.668;11.756;2023-03-14T06:57:40;10.60;82.00
55313;DHT22;46892;45.668;11.756;2023-03-14T07:00:06;10.60;82.60
55313;DHT22;46892;45.668;11.756;2023-03-14T07:02:32;10.40;82.80
55313;DHT22;46892;45.668;11.756;2023-03-14T07:04:58;10.30;84.00
55313;DHT22;46892;45.668;11.756;2023-03-14T07:07:23;10.30;84.50
55313;DHT22;46892;45.668;11.756;2023-03-14T07:09:49;10.30;84.70
55313;DHT22;46892;45.668;11.756;2023-03-14T07:12:15;10.50;84.30
55313;DHT22;46892;45.668;11.756;2023-03-14T07:14:40;10.50;83.90
55313;DHT22;46892;45.668;11.756;2023-03-14T07:17:06;10.40;84.40
55313;DHT22;46892;45.668;11.756;2023-03-14T07:19:32;10.30;84.80
55313;DHT22;46892;45.668;11.756;2023-03-14T07:21:57;10.30;84.70
55313;DHT22;46892;45.668;11.756;2023-03-14T07:24:23;10.30;84.50
55313;DHT22;46892;45.668;11.756;2023-03-14T07:26:49;10.30;84.70
55313;DHT22;46892;45.668;11.756;2023-03-14T07:29:14;10.20;85.50
55313;DHT22;46892;45.668;11.756;2023-03-14T07:31:40;10.30;85.70
55313;DHT22;46892;45.668;11.756;2023-03-14T07:34:06;10.30;85.70
55313;DHT22;46892;45.668;11.756;2023-03-14T07:36:32;10.30;85.30
55313;DHT22;46892;45.668;11.756;2023-03-14T07:38:57;10.30;85.40
55313;DHT22;46892;45.668;11.756;2023-03-14T07:41:23;10.30;85.60
55313;DHT22;46892;45.668;11.756;2023-03-14T07:43:49;10.30;85.90
55313;DHT22;46892;45.668;11.756;2023-03-14T07:46:15;10.30;86.10
55313;DHT22;46892;45.668;11.756;2023-03-14T07:48:41;10.30;85.70
55313;DHT22;46892;45.668;11.756;2023-03-14T07:51:07;10.30;85.80
55313;DHT22;46892;45.668;11.756;2023-03-14T07:53:32;10.30;85.90
55313;DHT22;46892;45.668;11.756;2023-03-14T07:55:58;10.40;86.00
55313;DHT22;46892;45.668;11.756;2023-03-14T07:58:24;10.50;85.50
55313;DHT22;46892;45.668;11.756;2023-03-14T08:00:51;10.60;85.70
55313;DHT22;46892;45.668;11.756;2023-03-14T08:03:17;10.50;85.80
55313;DHT22;46892;45.668;11.756;2023-03-14T08:05:43;10.60;85.90
55313;DHT22;46892;45.668;11.756;2023-03-14T08:08:09;10.60;85.90
55313;DHT22;46892;45.668;11.756;2023-03-14T08:10:35;10.70;86.20
55313;DHT22;46892;45.668;11.756;2023-03-14T08:13:01;10.70;86.10
55313;DHT22;46892;45.668;11.756;2023-03-14T08:15:28;10.80;85.80
55313;DHT22;46892;45.668;11.756;2023-03-14T08:17:54;10.80;85.40
55313;DHT22;46892;45.668;11.756;2023-03-14T08:20:21;10.80;85.10
55313;DHT22;46892;45.668;11.756;2023-03-14T08:22:47;10.70;85.60
55313;DHT22;46892;45.668;11.756;2023-03-14T08:25:14;10.80;85.50
55313;DHT22;46892;45.668;11.756;2023-03-14T08:27:40;10.80;85.40
55313;DHT22;46892;45.668;11.756;2023-03-14T08:30:09;10.80;85.60
55313;DHT22;46892;45.668;11.756;2023-03-14T08:32:35;10.90;85.10
55313;DHT22;46892;45.668;11.756;2023-03-14T08:35:01;10.80;85.70
55313;DHT22;46892;45.668;11.756;2023-03-14T08:37:27;10.90;85.70
55313;DHT22;46892;45.668;11.756;2023-03-14T08:39:53;10.90;85.70
55313;DHT22;46892;45.668;11.756;2023-03-14T08:42:19;10.90;85.30
55313;DHT22;46892;45.668;11.756;2023-03-14T08:44:44;10.90;85.60
55313;DHT22;46892;45.668;11.756;2023-03-14T08:47:10;10.90;85.20
55313;DHT22;46892;45.668;11.756;2023-03-14T08:49:36;10.80;85.40
55313;DHT22;46892;45.668;11.756;2023-03-14T08:52:03;10.90;85.80
55313;DHT22;46892;45.668;11.756;2023-03-14T08:54:29;10.80;85.90
55313;DHT22;46892;45.668;11.756;2023-03-14T08:56:55;10.80;86.40
55313;DHT22;46892;45.668;11.756;2023-03-14T08:59:21;10.80;86.10
55313;DHT22;46892;45.668;11.756;2023-03-14T09:01:46;10.80;86.40
55313;DHT22;46892;45.668;11.756;2023-03-14T09:04:12;10.80;86.60
55313;DHT22;46892;45.668;11.756;2023-03-14T09:06:38;11.00;86.60
55313;DHT22;46892;45.668;11.756;2023-03-14T09:09:05;11.00;86.70
55313;DHT22;46892;45.668;11.756;2023-03-14T09:11:30;11.20;86.40
55313;DHT22;46892;45.668;11.756;2023-03-14T09:13:56;11.10;86.10
55313;DHT22;46892;45.668;11.756;2023-03-14T09:16:22;11.00;86.70
55313;DHT22;46892;45.668;11.756;2023-03-14T09:18:48;11.00;87.30
55313;DHT22;46892;45.668;11.756;2023-03-14T09:21:14;11.20;87.20
55313;DHT22;46892;45.668;11.756;2023-03-14T09:23:39;11.20;87.00
55313;DHT22;46892;45.668;11.756;2023-03-14T09:26:06;11.20;86.80
55313;DHT22;46892;45.668;11.756;2023-03-14T09:28:32;11.30;86.50
55313;DHT22;46892;45.668;11.756;2023-03-14T09:30:57;11.30;86.40
55313;DHT22;46892;45.668;11.756;2023-03-14T09:33:23;11.20;86.80
55313;DHT22;46892;45.668;11.756;2023-03-14T09:35:49;11.20;87.30
55313;DHT22;46892;45.668;11.756;2023-03-14T09:38:15;11.20;87.50
55313;DHT22;46892;45.668;11.756;2023-03-14T09:40:41;11.20;87.30
55313;DHT22;46892;45.668;11.756;2023-03-14T09:43:14;11.20;87.60
55313;DHT22;46892;45.668;11.756;2023-03-14T09:45:41;11.20;87.70
55313;DHT22;46892;45.668;11.756;2023-03-14T09:48:16;11.30;87.90
55313;DHT22;46892;45.668;11.756;2023-03-14T09:50:45;11.30;87.90
55313;DHT22;46892;45.668;11.756;2023-03-14T09:53:19;11.30;87.40
55313;DHT22;46892;45.668;11.756;2023-03-14T09:55:48;11.30;87.80
55313;DHT22;46892;45.668;11.756;2023-03-14T09:58:19;11.40;88.00
55313;DHT22;46892;45.668;11.756;2023-03-14T10:00:45;11.40;88.10
55313;DHT22;46892;45.668;11.756;2023-03-14T10:05:38;11.40;88.10
55313;DHT22;46892;45.668;11.756;2023-03-14T10:08:04;11.40;88.00
55313;DHT22;46892;45.668;11.756;2023-03-14T10:10:30;11.50;88.40
55313;DHT22;46892;45.668;11.756;2023-03-14T10:12:59;11.50;88.20
55313;DHT22;46892;45.668;11.756;2023-03-14T10:15:30;11.60;88.20
55313;DHT22;46892;45.668;11.756;2023-03-14T10:17:59;11.60;88.30
55313;DHT22;46892;45.668;11.756;2023-03-14T10:20:30;11.60;88.20
55313;DHT22;46892;45.668;11.756;2023-03-14T10:23:05;11.60;88.20
55313;DHT22;46892;45.668;11.756;2023-03-14T10:25:33;11.80;88.80
55313;DHT22;46892;45.668;11.756;2023-03-14T10:27:59;11.80;88.30
55313;DHT22;46892;45.668;11.756;2023-03-14T10:30:43;12.00;88.10
55313;DHT22;46892;45.668;11.756;2023-03-14T10:33:28;12.10;88.30
55313;DHT22;46892;45.668;11.756;2023-03-14T10:36:24;12.10;87.60
55313;DHT22;46892;45.668;11.756;2023-03-14T10:41:50;11.90;87.50
55313;DHT22;46892;45.668;11.756;2023-03-14T10:44:21;11.90;88.40
55313;DHT22;46892;45.668;11.756;2023-03-14T10:46:59;11.90;87.80
55313;DHT22;46892;45.668;11.756;2023-03-14T10:49:30;12.00;88.30
55313;DHT22;46892;45.668;11.756;2023-03-14T10:54:36;12.00;87.80
55313;DHT22;46892;45.668;11.756;2023-03-14T10:57:04;11.90;87.30
55313;DHT22;46892;45.668;11.756;2023-03-14T10:59:39;11.90;87.30
55313;DHT22;46892;45.668;11.756;2023-03-14T11:07:44;11.70;88.40
55313;DHT22;46892;45.668;11.756;2023-03-14T11:15:55;11.70;88.40
55313;DHT22;46892;45.668;11.756;2023-03-14T11:24:08;11.70;89.20
55313;DHT22;46892;45.668;11.756;2023-03-14T11:29:21;11.70;88.70
55313;DHT22;46892;45.668;11.756;2023-03-14T11:31:51;11.70;88.80
55313;DHT22;46892;45.668;11.756;2023-03-14T11:34:47;11.70;88.70
55313;DHT22;46892;45.668;11.756;2023-03-14T11:37:36;11.60;88.80
55313;DHT22;46892;45.668;11.756;2023-03-14T11:42:31;11.60;88.90
55313;DHT22;46892;45.668;11.756;2023-03-14T11:45:00;11.60;89.00
55313;DHT22;46892;45.668;11.756;2023-03-14T11:47:31;11.60;89.10
55313;DHT22;46892;45.668;11.756;2023-03-14T11:55:19;11.40;89.40
55313;DHT22;46892;45.668;11.756;2023-03-14T11:57:48;11.50;89.80
55313;DHT22;46892;45.668;11.756;2023-03-14T12:00:20;11.50;89.50
55313;DHT22;46892;45.668;11.756;2023-03-14T12:13:39;11.80;89.50
55313;DHT22;46892;45.668;11.756;2023-03-14T12:16:33;11.80;88.90
55313;DHT22;46892;45.668;11.756;2023-03-14T12:21:49;11.70;88.20
55313;DHT22;46892;45.668;11.756;2023-03-14T12:24:22;11.70;88.40
55313;DHT22;46892;45.668;11.756;2023-03-14T12:26:54;11.70;88.60
55313;DHT22;46892;45.668;11.756;2023-03-14T12:29:20;11.70;88.70
55313;DHT22;46892;45.668;11.756;2023-03-14T12:31:48;11.70;88.60
55313;DHT22;46892;45.668;11.756;2023-03-14T12:42:22;11.70;87.80
55313;DHT22;46892;45.668;11.756;2023-03-14T12:47:55;11.70;87.70
55313;DHT22;46892;45.668;11.756;2023-03-14T12:50:26;11.80;87.70
55313;DHT22;46892;45.668;11.756;2023-03-14T12:58:22;12.10;87.60
55313;DHT22;46892;45.668;11.756;2023-03-14T13:00:59;12.30;86.90
55313;DHT22;46892;45.668;11.756;2023-03-14T13:12:14;12.20;85.20
55313;DHT22;46892;45.668;11.756;2023-03-14T13:14:47;12.30;85.90
55313;DHT22;46892;45.668;11.756;2023-03-14T13:17:15;12.30;85.60
55313;DHT22;46892;45.668;11.756;2023-03-14T13:19:44;12.30;86.40
55313;DHT22;46892;45.668;11.756;2023-03-14T13:22:30;12.30;85.50
55313;DHT22;46892;45.668;11.756;2023-03-14T13:25:05;12.30;85.20
55313;DHT22;46892;45.668;11.756;2023-03-14T13:27:33;12.30;84.80
55313;DHT22;46892;45.668;11.756;2023-03-14T13:30:15;12.40;85.70
55313;DHT22;46892;45.668;11.756;2023-03-14T13:32:43;12.50;85.10
55313;DHT22;46892;45.668;11.756;2023-03-14T13:35:26;12.60;85.80
55313;DHT22;46892;45.668;11.756;2023-03-14T13:37:57;12.80;84.90
55313;DHT22;46892;45.668;11.756;2023-03-14T13:40:34;12.80;83.40
55313;DHT22;46892;45.668;11.756;2023-03-14T13:45:48;13.00;83.70
55313;DHT22;46892;45.668;11.756;2023-03-14T13:48:14;13.10;83.00
55313;DHT22;46892;45.668;11.756;2023-03-14T13:50:54;13.10;83.50
55313;DHT22;46892;45.668;11.756;2023-03-14T13:53:21;13.20;82.80
55313;DHT22;46892;45.668;11.756;2023-03-14T13:55:47;13.20;82.20
55313;DHT22;46892;45.668;11.756;2023-03-14T13:58:28;13.40;82.50
55313;DHT22;46892;45.668;11.756;2023-03-14T14:01:06;13.40;81.90
55313;DHT22;46892;45.668;11.756;2023-03-14T14:03:39;13.40;82.10
55313;DHT22;46892;45.668;11.756;2023-03-14T14:06:10;13.30;81.70
55313;DHT22;46892;45.668;11.756;2023-03-14T14:08:40;13.30;81.20
55313;DHT22;46892;45.668;11.756;2023-03-14T14:11:06;13.20;81.00
55313;DHT22;46892;45.668;11.756;2023-03-14T14:13:35;13.20;80.90
55313;DHT22;46892;45.668;11.756;2023-03-14T14:16:02;13.20;81.30
55313;DHT22;46892;45.668;11.756;2023-03-14T14:18:29;13.10;81.70
55313;DHT22;46892;45.668;11.756;2023-03-14T14:20:56;13.10;81.10
55313;DHT22;46892;45.668;11.756;2023-03-14T14:23:26;13.00;81.70
55313;DHT22;46892;45.668;11.756;2023-03-14T14:25:55;13.10;81.90
55313;DHT22;46892;45.668;11.756;2023-03-14T14:33:26;13.70;81.60
55313;DHT22;46892;45.668;11.756;2023-03-14T14:35:58;13.60;81.20
55313;DHT22;46892;45.668;11.756;2023-03-14T14:38:25;13.50;81.30
55313;DHT22;46892;45.668;11.756;2023-03-14T14:40:58;13.40;80.80
55313;DHT22;46892;45.668;11.756;2023-03-14T14:43:27;13.20;80.60
55313;DHT22;46892;45.668;11.756;2023-03-14T14:45:54;13.10;81.10
55313;DHT22;46892;45.668;11.756;2023-03-14T14:48:26;13.00;81.00
55313;DHT22;46892;45.668;11.756;2023-03-14T14:51:01;13.00;81.90
55313;DHT22;46892;45.668;11.756;2023-03-14T14:53:42;13.00;80.60
55313;DHT22;46892;45.668;11.756;2023-03-14T14:56:19;13.00;81.90
55313;DHT22;46892;45.668;11.756;2023-03-14T14:58:48;13.20;82.50
55313;DHT22;46892;45.668;11.756;2023-03-14T15:03:45;13.30;79.70
55313;DHT22;46892;45.668;11.756;2023-03-14T15:06:14;13.30;80.00
55313;DHT22;46892;45.668;11.756;2023-03-14T15:08:40;13.20;79.30
55313;DHT22;46892;45.668;11.756;2023-03-14T15:11:17;13.20;79.80
55313;DHT22;46892;45.668;11.756;2023-03-14T15:13:44;13.10;79.60
55313;DHT22;46892;45.668;11.756;2023-03-14T15:16:15;13.10;80.60
55313;DHT22;46892;45.668;11.756;2023-03-14T15:18:41;13.10;80.00
55313;DHT22;46892;45.668;11.756;2023-03-14T15:21:09;13.00;80.30
55313;DHT22;46892;45.668;11.756;2023-03-14T15:23:35;13.20;80.90
55313;DHT22;46892;45.668;11.756;2023-03-14T15:26:01;13.20;81.20
55313;DHT22;46892;45.668;11.756;2023-03-14T15:28:29;13.30;81.20
55313;DHT22;46892;45.668;11.756;2023-03-14T15:30:57;13.30;80.00
55313;DHT22;46892;45.668;11.756;2023-03-14T15:33:24;13.30;78.80
55313;DHT22;46892;45.668;11.756;2023-03-14T15:35:50;13.40;79.50
55313;DHT22;46892;45.668;11.756;2023-03-14T15:38:21;13.40;79.50
55313;DHT22;46892;45.668;11.756;2023-03-14T15:40:48;13.50;79.70
55313;DHT22;46892;45.668;11.756;2023-03-14T15:43:14;13.50;80.10
55313;DHT22;46892;45.668;11.756;2023-03-14T15:45:40;13.60;79.30
55313;DHT22;46892;45.668;11.756;2023-03-14T15:48:09;13.60;78.70
55313;DHT22;46892;45.668;11.756;2023-03-14T15:50:37;13.60;78.60
55313;DHT22;46892;45.668;11.756;2023-03-14T15:53:03;13.60;78.80
55313;DHT22;46892;45.668;11.756;2023-03-14T15:55:29;13.60;79.80
55313;DHT22;46892;45.668;11.756;2023-03-14T15:57:54;13.60;79.50
55313;DHT22;46892;45.668;11.756;2023-03-14T16:00:20;13.50;79.50
55313;DHT22;46892;45.668;11.756;2023-03-14T16:02:50;13.50;79.60
55313;DHT22;46892;45.668;11.756;2023-03-14T16:05:16;13.40;79.30
55313;DHT22;46892;45.668;11.756;2023-03-14T16:07:44;13.30;79.50
55313;DHT22;46892;45.668;11.756;2023-03-14T16:10:11;13.30;79.80
55313;DHT22;46892;45.668;11.756;2023-03-14T16:12:37;13.20;80.10
55313;DHT22;46892;45.668;11.756;2023-03-14T16:15:03;13.20;80.80
55313;DHT22;46892;45.668;11.756;2023-03-14T16:17:28;13.20;81.00
55313;DHT22;46892;45.668;11.756;2023-03-14T16:19:54;13.10;81.00
55313;DHT22;46892;45.668;11.756;2023-03-14T16:22:20;13.10;81.00
55313;DHT22;46892;45.668;11.756;2023-03-14T16:24:46;13.00;81.10
55313;DHT22;46892;45.668;11.756;2023-03-14T16:27:11;12.90;81.40
55313;DHT22;46892;45.668;11.756;2023-03-14T16:29:37;12.90;81.60
55313;DHT22;46892;45.668;11.756;2023-03-14T16:32:03;12.80;82.00
55313;DHT22;46892;45.668;11.756;2023-03-14T16:34:29;12.80;81.60
55313;DHT22;46892;45.668;11.756;2023-03-14T16:36:56;12.70;81.50
55313;DHT22;46892;45.668;11.756;2023-03-14T16:39:21;12.80;81.50
55313;DHT22;46892;45.668;11.756;2023-03-14T16:41:47;12.70;81.50
55313;DHT22;46892;45.668;11.756;2023-03-14T16:44:13;12.70;82.00
55313;DHT22;46892;45.668;11.756;2023-03-14T16:46:38;12.60;82.40
55313;DHT22;46892;45.668;11.756;2023-03-14T16:49:04;12.60;82.70
55313;DHT22;46892;45.668;11.756;2023-03-14T16:51:31;12.50;82.80